sensor_id;sensor_type;location;lat;lon;timestamp;P1;durP1;ratioP1;P2;durP2;ratioP2
49460;SDS011;35355;49.198;-0.368;2023-03-01T00:01:16;10.85;;;6.03;;
49460;SDS011;35355;49.198;-0.368;2023-03-01T00:03:43;10.60;;;6.25;;
49460;SDS011;35355;49.198;-0.368;2023-03-01T00:06:09;13.40;;;6.35;;
49460;SDS011;35355;49.198;-0.368;2023-03-01T00:08:35;12.05;;;6.43;;
49460;SDS011;35355;49.198;-0.368;2023-03-01T00:11:01;9.60;;;5.82;;
49460;SDS011;35355;49.198;-0.368;2023-03-01T00:13:28;10.20;;;5.82;;
49460;SDS011;35355;49.198;-0.368;2023-03-01T00:15:53;14.02;;;6.20;;
49460;SDS011;35355;49.198;-0.368;2023-03-01T00:18:18;8.00;;;5.10;;
49460;SDS011;35355;49.198;-0.368;2023-03-01T00:20:53;13.50;;;6.38;;
49460;SDS011;35355;49.198;-0.368;2023-03-01T00:23:20;10.40;;;5.70;;
49460;SDS011;35355;49.198;-0.368;2023-03-01T00:25:46;8.20;;;5.80;;
49460;SDS011;35355;49.198;-0.368;2023-03-01T00:28:11;9.48;;;5.60;;
49460;SDS011;35355;49.198;-0.368;2023-03-01T00:30:36;10.93;;;5.03;;
49460;SDS011;35355;49.198;-0.368;2023-03-01T00:33:02;10.75;;;5.65;;
49460;SDS011;35355;49.198;-0.368;2023-03-01T00:35:27;9.75;;;5.97;;
49460;SDS011;35355;49.198;-0.368;2023-03-01T00:37:53;12.82;;;5.63;;
49460;SDS011;35355;49.198;-0.368;2023-03-01T00:40:25;8.73;;;5.68;;
49460;SDS011;35355;49.198;-0.368;2023-03-01T00:42:51;9.77;;;5.72;;
49460;SDS011;35355;49.198;-0.368;2023-03-01T00:45:17;15.30;;;5.63;;
49460;SDS011;35355;49.198;-0.368;2023-03-01T00:47:42;9.75;;;5.55;;
49460;SDS011;35355;49.198;-0.368;2023-03-01T00:50:08;8.50;;;4.90;;
49460;SDS011;35355;49.198;-0.368;2023-03-01T00:52:35;7.63;;;4.43;;
49460;SDS011;35355;49.198;-0.368;2023-03-01T00:55:00;9.85;;;5.90;;
49460;SDS011;35355;49.198;-0.368;2023-03-01T00:57:26;10.82;;;5.60;;
49460;SDS011;35355;49.198;-0.368;2023-03-01T00:59:51;8.65;;;5.57;;
49460;SDS011;35355;49.198;-0.368;2023-03-01T01:02:18;12.60;;;6.20;;
49460;SDS011;35355;49.198;-0.368;2023-03-01T01:04:44;10.27;;;5.72;;
49460;SDS011;35355;49.198;-0.368;2023-03-01T01:07:10;14.52;;;6.03;;
49460;SDS011;35355;49.198;-0.368;2023-03-01T01:09:35;11.18;;;6.05;;
49460;SDS011;35355;49.198;-0.368;2023-03-01T01:12:01;9.93;;;5.18;;
49460;SDS011;35355;49.198;-0.368;2023-03-01T01:14:27;8.85;;;5.00;;
49460;SDS011;35355;49.198;-0.368;2023-03-01T01:16:53;10.02;;;5.40;;
49460;SDS011;35355;49.198;-0.368;2023-03-01T01:19:19;10.38;;;5.78;;
49460;SDS011;35355;49.198;-0.368;2023-03-01T01:21:44;12.13;;;6.68;;
49460;SDS011;35355;49.198;-0.368;2023-03-01T01:24:10;15.93;;;5.90;;
49460;SDS011;35355;49.198;-0.368;2023-03-01T01:26:36;19.67;;;6.57;;
49460;SDS011;35355;49.198;-0.368;2023-03-01T01:29:03;14.68;;;7.45;;
49460;SDS011;35355;49.198;-0.368;2023-03-01T01:31:30;12.05;;;6.22;;
49460;SDS011;35355;49.198;-0.368;2023-03-01T01:40:43;12.85;;;6.00;;
49460;SDS011;35355;49.198;-0.368;2023-03-01T01:46:30;10.40;;;5.68;;
49460;SDS011;35355;49.198;-0.368;2023-03-01T01:49:02;10.13;;;5.55;;
49460;SDS011;35355;49.198;-0.368;2023-03-01T01:51:31;8.90;;;5.57;;
49460;SDS011;35355;49.198;-0.368;2023-03-01T01:54:03;9.40;;;4.50;;
49460;SDS011;35355;49.198;-0.368;2023-03-01T01:56:33;9.93;;;5.10;;
49460;SDS011;35355;49.198;-0.368;2023-03-01T01:58:59;9.18;;;4.60;;
49460;SDS011;35355;49.198;-0.368;2023-03-01T02:01:26;10.93;;;5.38;;
49460;SDS011;35355;49.198;-0.368;2023-03-01T02:03:52;8.55;;;5.18;;
49460;SDS011;35355;49.198;-0.368;2023-03-01T02:09:03;11.15;;;5.15;;
49460;SDS011;35355;49.198;-0.368;2023-03-01T02:11:32;7.25;;;4.55;;
49460;SDS011;35355;49.198;-0.368;2023-03-01T02:13:58;8.98;;;5.13;;
49460;SDS011;35355;49.198;-0.368;2023-03-01T02:16:24;10.82;;;5.30;;
49460;SDS011;35355;49.198;-0.368;2023-03-01T02:18:51;10.40;;;4.50;;
49460;SDS011;35355;49.198;-0.368;2023-03-01T02:24:05;10.32;;;5.28;;
49460;SDS011;35355;49.198;-0.368;2023-03-01T02:26:54;8.60;;;5.03;;
49460;SDS011;35355;49.198;-0.368;2023-03-01T02:29:22;9.23;;;5.22;;
49460;SDS011;35355;49.198;-0.368;2023-03-01T02:31:48;10.45;;;4.85;;
49460;SDS011;35355;49.198;-0.368;2023-03-01T02:34:17;9.05;;;5.57;;
49460;SDS011;35355;49.198;-0.368;2023-03-01T02:39:22;12.65;;;5.43;;
49460;SDS011;35355;49.198;-0.368;2023-03-01T02:41:56;9.35;;;5.70;;
49460;SDS011;35355;49.198;-0.368;2023-03-01T02:44:22;8.70;;;5.53;;
49460;SDS011;35355;49.198;-0.368;2023-03-01T02:46:52;7.82;;;4.75;;
49460;SDS011;35355;49.198;-0.368;2023-03-01T02:57:11;10.25;;;5.35;;
49460;SDS011;35355;49.198;-0.368;2023-03-01T02:59:37;11.52;;;5.63;;
49460;SDS011;35355;49.198;-0.368;2023-03-01T03:02:08;11.70;;;5.10;;
49460;SDS011;35355;49.198;-0.368;2023-03-01T03:04:45;12.30;;;6.50;;
49460;SDS011;35355;49.198;-0.368;2023-03-01T03:07:11;11.77;;;4.95;;
49460;SDS011;35355;49.198;-0.368;2023-03-01T03:09:37;12.93;;;6.22;;
49460;SDS011;35355;49.198;-0.368;2023-03-01T03:12:02;13.93;;;5.95;;
49460;SDS011;35355;49.198;-0.368;2023-03-01T03:14:28;12.43;;;6.25;;
49460;SDS011;35355;49.198;-0.368;2023-03-01T03:16:53;10.30;;;5.57;;
49460;SDS011;35355;49.198;-0.368;2023-03-01T03:19:19;11.45;;;6.35;;
49460;SDS011;35355;49.198;-0.368;2023-03-01T03:21:44;9.25;;;5.53;;
49460;SDS011;35355;49.198;-0.368;2023-03-01T03:24:10;11.25;;;5.68;;
49460;SDS011;35355;49.198;-0.368;2023-03-01T03:26:35;12.75;;;6.43;;
49460;SDS011;35355;49.198;-0.368;2023-03-01T03:29:01;13.23;;;6.43;;
49460;SDS011;35355;49.198;-0.368;2023-03-01T03:31:27;11.50;;;5.20;;
49460;SDS011;35355;49.198;-0.368;2023-03-01T03:33:53;12.07;;;5.93;;
49460;SDS011;35355;49.198;-0.368;2023-03-01T03:36:20;9.10;;;5.32;;
49460;SDS011;35355;49.198;-0.368;2023-03-01T03:38:47;11.70;;;6.85;;
49460;SDS011;35355;49.198;-0.368;2023-03-01T03:41:14;8.75;;;5.68;;
49460;SDS011;35355;49.198;-0.368;2023-03-01T03:43:40;12.95;;;7.05;;
49460;SDS011;35355;49.198;-0.368;2023-03-01T03:46:07;12.90;;;5.05;;
49460;SDS011;35355;49.198;-0.368;2023-03-01T03:48:34;11.88;;;5.95;;
49460;SDS011;35355;49.198;-0.368;2023-03-01T03:51:01;9.13;;;5.68;;
49460;SDS011;35355;49.198;-0.368;2023-03-01T03:53:27;10.43;;;5.35;;
49460;SDS011;35355;49.198;-0.368;2023-03-01T03:55:53;11.77;;;6.13;;
49460;SDS011;35355;49.198;-0.368;2023-03-01T03:58:20;14.43;;;5.90;;
49460;SDS011;35355;49.198;-0.368;2023-03-01T04:00:48;10.85;;;5.22;;
49460;SDS011;35355;49.198;-0.368;2023-03-01T04:03:16;12.00;;;5.57;;
49460;SDS011;35355;49.198;-0.368;2023-03-01T04:05:43;11.73;;;5.07;;
49460;SDS011;35355;49.198;-0.368;2023-03-01T04:08:09;9.48;;;5.35;;
49460;SDS011;35355;49.198;-0.368;2023-03-01T04:10:36;10.25;;;5.25;;
49460;SDS011;35355;49.198;-0.368;2023-03-01T04:13:06;9.70;;;5.60;;
49460;SDS011;35355;49.198;-0.368;2023-03-01T04:15:32;15.88;;;6.20;;
49460;SDS011;35355;49.198;-0.368;2023-03-01T04:17:59;18.10;;;7.15;;
49460;SDS011;35355;49.198;-0.368;2023-03-01T04:20:29;14.95;;;7.18;;
49460;SDS011;35355;49.198;-0.368;2023-03-01T04:23:00;19.90;;;8.40;;
49460;SDS011;35355;49.198;-0.368;2023-03-01T04:25:49;10.73;;;6.38;;
49460;SDS011;35355;49.198;-0.368;2023-03-01T04:28:22;13.98;;;7.32;;
49460;SDS011;35355;49.198;-0.368;2023-03-01T04:30:50;10.27;;;6.55;;
49460;SDS011;35355;49.198;-0.368;2023-03-01T04:33:16;16.05;;;7.28;;
49460;SDS011;35355;49.198;-0.368;2023-03-01T04:35:42;11.73;;;7.18;;
49460;SDS011;35355;49.198;-0.368;2023-03-01T04:38:08;15.50;;;7.55;;
49460;SDS011;35355;49.198;-0.368;2023-03-01T04:40:33;14.82;;;6.85;;
49460;SDS011;35355;49.198;-0.368;2023-03-01T04:43:00;12.80;;;7.55;;
49460;SDS011;35355;49.198;-0.368;2023-03-01T04:45:26;15.38;;;7.88;;
49460;SDS011;35355;49.198;-0.368;2023-03-01T04:47:52;10.13;;;5.85;;
49460;SDS011;35355;49.198;-0.368;2023-03-01T04:50:18;12.05;;;6.80;;
49460;SDS011;35355;49.198;-0.368;2023-03-01T04:52:48;11.95;;;6.72;;
49460;SDS011;35355;49.198;-0.368;2023-03-01T04:55:14;14.27;;;6.15;;
49460;SDS011;35355;49.198;-0.368;2023-03-01T04:57:40;12.73;;;6.88;;
49460;SDS011;35355;49.198;-0.368;2023-03-01T05:00:06;13.07;;;6.55;;
49460;SDS011;35355;49.198;-0.368;2023-03-01T05:02:59;12.00;;;6.15;;
49460;SDS011;35355;49.198;-0.368;2023-03-01T05:05:27;14.57;;;6.78;;
49460;SDS011;35355;49.198;-0.368;2023-03-01T05:07:56;9.32;;;5.55;;
49460;SDS011;35355;49.198;-0.368;2023-03-01T05:10:23;12.57;;;7.47;;
49460;SDS011;35355;49.198;-0.368;2023-03-01T05:12:50;13.93;;;6.80;;
49460;SDS011;35355;49.198;-0.368;2023-03-01T05:15:17;8.90;;;6.20;;
49460;SDS011;35355;49.198;-0.368;2023-03-01T05:17:43;9.63;;;6.30;;
49460;SDS011;35355;49.198;-0.368;2023-03-01T05:20:08;15.52;;;5.78;;
49460;SDS011;35355;49.198;-0.368;2023-03-01T05:22:35;12.30;;;5.97;;
49460;SDS011;35355;49.198;-0.368;2023-03-01T05:25:01;12.07;;;6.57;;
49460;SDS011;35355;49.198;-0.368;2023-03-01T05:27:27;14.55;;;6.60;;
49460;SDS011;35355;49.198;-0.368;2023-03-01T05:29:54;10.30;;;6.82;;
49460;SDS011;35355;49.198;-0.368;2023-03-01T05:52:22;13.32;;;6.50;;
49460;SDS011;35355;49.198;-0.368;2023-03-01T05:54:47;15.73;;;7.13;;
49460;SDS011;35355;49.198;-0.368;2023-03-01T05:57:13;11.23;;;6.20;;
49460;SDS011;35355;49.198;-0.368;2023-03-01T05:59:38;13.43;;;6.55;;
49460;SDS011;35355;49.198;-0.368;2023-03-01T06:02:03;12.77;;;6.90;;
49460;SDS011;35355;49.198;-0.368;2023-03-01T06:04:29;13.30;;;7.30;;
49460;SDS011;35355;49.198;-0.368;2023-03-01T06:06:54;14.73;;;7.28;;
49460;SDS011;35355;49.198;-0.368;2023-03-01T06:09:19;15.73;;;7.55;;
49460;SDS011;35355;49.198;-0.368;2023-03-01T06:11:45;14.57;;;7.00;;
49460;SDS011;35355;49.198;-0.368;2023-03-01T06:14:10;13.07;;;7.50;;
49460;SDS011;35355;49.198;-0.368;2023-03-01T06:16:38;15.60;;;8.55;;
49460;SDS011;35355;49.198;-0.368;2023-03-01T06:19:03;14.38;;;8.38;;
49460;SDS011;35355;49.198;-0.368;2023-03-01T06:21:28;14.55;;;8.88;;
49460;SDS011;35355;49.198;-0.368;2023-03-01T06:23:54;18.63;;;9.65;;
49460;SDS011;35355;49.198;-0.368;2023-03-01T06:26:19;14.90;;;8.45;;
49460;SDS011;35355;49.198;-0.368;2023-03-01T06:28:44;19.65;;;9.07;;
49460;SDS011;35355;49.198;-0.368;2023-03-01T06:31:11;18.95;;;9.77;;
49460;SDS011;35355;49.198;-0.368;2023-03-01T06:33:36;14.93;;;9.25;;
49460;SDS011;35355;49.198;-0.368;2023-03-01T06:36:02;15.60;;;10.20;;
49460;SDS011;35355;49.198;-0.368;2023-03-01T06:38:27;17.98;;;9.32;;
49460;SDS011;35355;49.198;-0.368;2023-03-01T06:40:53;16.02;;;9.32;;
49460;SDS011;35355;49.198;-0.368;2023-03-01T06:43:20;17.90;;;9.35;;
49460;SDS011;35355;49.198;-0.368;2023-03-01T06:45:45;18.17;;;9.68;;
49460;SDS011;35355;49.198;-0.368;2023-03-01T06:48:11;18.38;;;9.23;;
49460;SDS011;35355;49.198;-0.368;2023-03-01T06:50:36;16.25;;;9.27;;
49460;SDS011;35355;49.198;-0.368;2023-03-01T06:53:03;19.55;;;11.25;;
49460;SDS011;35355;49.198;-0.368;2023-03-01T06:55:29;22.90;;;11.30;;
49460;SDS011;35355;49.198;-0.368;2023-03-01T06:57:55;19.13;;;9.80;;
49460;SDS011;35355;49.198;-0.368;2023-03-01T07:00:21;16.17;;;9.55;;
49460;SDS011;35355;49.198;-0.368;2023-03-01T07:02:47;16.48;;;8.95;;
49460;SDS011;35355;49.198;-0.368;2023-03-01T07:05:12;18.27;;;9.50;;
49460;SDS011;35355;49.198;-0.368;2023-03-01T07:07:37;19.70;;;10.75;;
49460;SDS011;35355;49.198;-0.368;2023-03-01T07:10:03;19.08;;;10.25;;
49460;SDS011;35355;49.198;-0.368;2023-03-01T07:12:29;19.05;;;9.57;;
49460;SDS011;35355;49.198;-0.368;2023-03-01T07:14:54;23.42;;;11.15;;
49460;SDS011;35355;49.198;-0.368;2023-03-01T07:17:19;19.23;;;10.20;;
49460;SDS011;35355;49.198;-0.368;2023-03-01T07:19:45;25.35;;;10.50;;
49460;SDS011;35355;49.198;-0.368;2023-03-01T07:22:10;16.40;;;10.00;;
49460;SDS011;35355;49.198;-0.368;2023-03-01T07:24:35;18.77;;;10.90;;
49460;SDS011;35355;49.198;-0.368;2023-03-01T07:27:01;19.15;;;10.63;;
49460;SDS011;35355;49.198;-0.368;2023-03-01T07:29:26;21.48;;;10.65;;
49460;SDS011;35355;49.198;-0.368;2023-03-01T07:31:53;15.85;;;9.35;;
49460;SDS011;35355;49.198;-0.368;2023-03-01T07:34:19;19.85;;;9.40;;
49460;SDS011;35355;49.198;-0.368;2023-03-01T07:36:44;14.63;;;8.30;;
49460;SDS011;35355;49.198;-0.368;2023-03-01T07:39:10;18.23;;;9.70;;
49460;SDS011;35355;49.198;-0.368;2023-03-01T07:41:36;16.95;;;10.45;;
49460;SDS011;35355;49.198;-0.368;2023-03-01T07:44:02;18.42;;;8.68;;
49460;SDS011;35355;49.198;-0.368;2023-03-01T07:46:27;16.60;;;8.65;;
49460;SDS011;35355;49.198;-0.368;2023-03-01T07:48:52;14.90;;;8.50;;
49460;SDS011;35355;49.198;-0.368;2023-03-01T07:51:18;13.48;;;8.32;;
49460;SDS011;35355;49.198;-0.368;2023-03-01T07:53:45;13.02;;;7.70;;
49460;SDS011;35355;49.198;-0.368;2023-03-01T07:56:12;16.02;;;7.97;;
49460;SDS011;35355;49.198;-0.368;2023-03-01T07:58:39;12.82;;;8.25;;
49460;SDS011;35355;49.198;-0.368;2023-03-01T08:01:07;20.02;;;7.78;;
49460;SDS011;35355;49.198;-0.368;2023-03-01T08:03:34;16.38;;;9.10;;
49460;SDS011;35355;49.198;-0.368;2023-03-01T08:06:04;16.85;;;8.30;;
49460;SDS011;35355;49.198;-0.368;2023-03-01T08:08:32;12.98;;;7.68;;
49460;SDS011;35355;49.198;-0.368;2023-03-01T08:11:01;15.55;;;8.50;;
49460;SDS011;35355;49.198;-0.368;2023-03-01T08:13:28;15.10;;;8.45;;
49460;SDS011;35355;49.198;-0.368;2023-03-01T08:15:54;14.57;;;9.00;;
49460;SDS011;35355;49.198;-0.368;2023-03-01T08:18:20;16.60;;;8.18;;
49460;SDS011;35355;49.198;-0.368;2023-03-01T08:20:46;16.95;;;8.93;;
49460;SDS011;35355;49.198;-0.368;2023-03-01T08:23:11;15.45;;;9.52;;
49460;SDS011;35355;49.198;-0.368;2023-03-01T08:25:37;20.42;;;9.15;;
49460;SDS011;35355;49.198;-0.368;2023-03-01T08:28:02;15.27;;;8.25;;
49460;SDS011;35355;49.198;-0.368;2023-03-01T08:30:28;14.27;;;7.55;;
49460;SDS011;35355;49.198;-0.368;2023-03-01T08:32:54;14.73;;;8.52;;
49460;SDS011;35355;49.198;-0.368;2023-03-01T08:35:19;12.85;;;7.25;;
49460;SDS011;35355;49.198;-0.368;2023-03-01T08:37:45;16.75;;;8.90;;
49460;SDS011;35355;49.198;-0.368;2023-03-01T08:40:11;14.73;;;8.48;;
49460;SDS011;35355;49.198;-0.368;2023-03-01T08:42:38;14.02;;;8.40;;
49460;SDS011;35355;49.198;-0.368;2023-03-01T08:45:06;17.02;;;8.60;;
49460;SDS011;35355;49.198;-0.368;2023-03-01T08:47:32;13.32;;;7.82;;
49460;SDS011;35355;49.198;-0.368;2023-03-01T08:49:58;12.10;;;6.88;;
49460;SDS011;35355;49.198;-0.368;2023-03-01T08:52:24;11.25;;;7.25;;
49460;SDS011;35355;49.198;-0.368;2023-03-01T08:54:50;13.43;;;7.93;;
49460;SDS011;35355;49.198;-0.368;2023-03-01T08:57:16;15.90;;;6.82;;
49460;SDS011;35355;49.198;-0.368;2023-03-01T08:59:41;12.27;;;7.30;;
49460;SDS011;35355;49.198;-0.368;2023-03-01T09:02:14;11.63;;;6.20;;
49460;SDS011;35355;49.198;-0.368;2023-03-01T09:04:41;13.18;;;6.32;;
49460;SDS011;35355;49.198;-0.368;2023-03-01T09:07:07;9.57;;;5.53;;
49460;SDS011;35355;49.198;-0.368;2023-03-01T09:09:33;14.07;;;7.45;;
49460;SDS011;35355;49.198;-0.368;2023-03-01T09:11:58;12.30;;;6.43;;
49460;SDS011;35355;49.198;-0.368;2023-03-01T09:14:24;9.57;;;6.47;;
49460;SDS011;35355;49.198;-0.368;2023-03-01T09:16:49;13.80;;;7.68;;
49460;SDS011;35355;49.198;-0.368;2023-03-01T09:19:15;11.45;;;5.85;;
49460;SDS011;35355;49.198;-0.368;2023-03-01T09:21:41;11.48;;;5.47;;
49460;SDS011;35355;49.198;-0.368;2023-03-01T09:24:16;9.25;;;5.63;;
49460;SDS011;35355;49.198;-0.368;2023-03-01T09:26:42;9.98;;;4.68;;
49460;SDS011;35355;49.198;-0.368;2023-03-01T09:29:11;9.23;;;5.10;;
49460;SDS011;35355;49.198;-0.368;2023-03-01T09:31:37;9.05;;;3.72;;
49460;SDS011;35355;49.198;-0.368;2023-03-01T09:34:02;6.20;;;3.70;;
49460;SDS011;35355;49.198;-0.368;2023-03-01T09:36:28;6.93;;;4.28;;
49460;SDS011;35355;49.198;-0.368;2023-03-01T09:38:53;9.35;;;4.40;;
49460;SDS011;35355;49.198;-0.368;2023-03-01T09:47:16;5.82;;;2.78;;
49460;SDS011;35355;49.198;-0.368;2023-03-01T09:50:04;6.22;;;2.97;;
49460;SDS011;35355;49.198;-0.368;2023-03-01T09:55:15;6.03;;;3.33;;
49460;SDS011;35355;49.198;-0.368;2023-03-01T10:00:16;5.85;;;3.47;;
49460;SDS011;35355;49.198;-0.368;2023-03-01T10:03:31;7.68;;;3.72;;
49460;SDS011;35355;49.198;-0.368;2023-03-01T10:11:24;8.02;;;4.35;;
49460;SDS011;35355;49.198;-0.368;2023-03-01T10:14:06;7.20;;;3.60;;
49460;SDS011;35355;49.198;-0.368;2023-03-01T10:16:58;4.95;;;3.38;;
49460;SDS011;35355;49.198;-0.368;2023-03-01T10:19:44;8.35;;;5.18;;
49460;SDS011;35355;49.198;-0.368;2023-03-01T10:22:12;8.27;;;4.45;;
49460;SDS011;35355;49.198;-0.368;2023-03-01T10:24:38;7.13;;;4.00;;
49460;SDS011;35355;49.198;-0.368;2023-03-01T10:27:05;12.43;;;3.90;;
49460;SDS011;35355;49.198;-0.368;2023-03-01T10:29:43;7.15;;;3.72;;
49460;SDS011;35355;49.198;-0.368;2023-03-01T10:32:14;7.03;;;3.47;;
49460;SDS011;35355;49.198;-0.368;2023-03-01T10:34:41;6.13;;;3.55;;
49460;SDS011;35355;49.198;-0.368;2023-03-01T10:37:12;5.78;;;4.05;;
49460;SDS011;35355;49.198;-0.368;2023-03-01T10:39:55;7.70;;;3.78;;
49460;SDS011;35355;49.198;-0.368;2023-03-01T10:42:34;7.07;;;3.38;;
49460;SDS011;35355;49.198;-0.368;2023-03-01T10:45:40;7.53;;;3.40;;
49460;SDS011;35355;49.198;-0.368;2023-03-01T10:50:33;11.20;;;4.47;;
49460;SDS011;35355;49.198;-0.368;2023-03-01T10:53:00;8.77;;;4.45;;
49460;SDS011;35355;49.198;-0.368;2023-03-01T10:55:37;9.85;;;4.57;;
49460;SDS011;35355;49.198;-0.368;2023-03-01T10:58:20;9.13;;;4.80;;
49460;SDS011;35355;49.198;-0.368;2023-03-01T11:00:51;8.73;;;5.03;;
49460;SDS011;35355;49.198;-0.368;2023-03-01T11:03:32;7.45;;;4.43;;
49460;SDS011;35355;49.198;-0.368;2023-03-01T11:06:01;8.63;;;5.20;;
49460;SDS011;35355;49.198;-0.368;2023-03-01T11:11:18;9.32;;;5.03;;
49460;SDS011;35355;49.198;-0.368;2023-03-01T11:13:49;7.15;;;4.53;;
49460;SDS011;35355;49.198;-0.368;2023-03-01T11:16:22;11.73;;;4.72;;
49460;SDS011;35355;49.198;-0.368;2023-03-01T11:19:00;8.43;;;5.13;;
49460;SDS011;35355;49.198;-0.368;2023-03-01T11:21:41;10.35;;;5.93;;
49460;SDS011;35355;49.198;-0.368;2023-03-01T11:24:13;8.30;;;5.68;;
49460;SDS011;35355;49.198;-0.368;2023-03-01T11:26:42;8.80;;;5.32;;
49460;SDS011;35355;49.198;-0.368;2023-03-01T11:29:45;10.70;;;5.45;;
49460;SDS011;35355;49.198;-0.368;2023-03-01T11:32:08;9.35;;;5.72;;
49460;SDS011;35355;49.198;-0.368;2023-03-01T11:37:53;10.40;;;6.63;;
49460;SDS011;35355;49.198;-0.368;2023-03-01T11:40:26;12.60;;;7.47;;
49460;SDS011;35355;49.198;-0.368;2023-03-01T11:42:59;14.70;;;7.85;;
49460;SDS011;35355;49.198;-0.368;2023-03-01T11:50:58;13.93;;;8.23;;
49460;SDS011;35355;49.198;-0.368;2023-03-01T11:53:48;13.35;;;7.68;;
49460;SDS011;35355;49.198;-0.368;2023-03-01T11:56:31;13.20;;;7.95;;
49460;SDS011;35355;49.198;-0.368;2023-03-01T12:04:26;12.60;;;7.60;;
49460;SDS011;35355;49.198;-0.368;2023-03-01T12:07:10;14.48;;;8.77;;
49460;SDS011;35355;49.198;-0.368;2023-03-01T12:12:33;13.98;;;7.78;;
49460;SDS011;35355;49.198;-0.368;2023-03-01T12:17:55;15.68;;;8.13;;
49460;SDS011;35355;49.198;-0.368;2023-03-01T12:23:41;12.95;;;8.80;;
49460;SDS011;35355;49.198;-0.368;2023-03-01T12:26:35;19.25;;;9.68;;
49460;SDS011;35355;49.198;-0.368;2023-03-01T12:32:14;13.73;;;8.63;;
49460;SDS011;35355;49.198;-0.368;2023-03-01T12:40:46;13.90;;;8.20;;
49460;SDS011;35355;49.198;-0.368;2023-03-01T12:46:02;14.93;;;9.00;;
49460;SDS011;35355;49.198;-0.368;2023-03-01T12:51:26;13.93;;;8.02;;
49460;SDS011;35355;49.198;-0.368;2023-03-01T12:53:57;14.98;;;9.30;;
49460;SDS011;35355;49.198;-0.368;2023-03-01T12:56:25;12.98;;;8.00;;
49460;SDS011;35355;49.198;-0.368;2023-03-01T13:07:15;12.60;;;6.88;;
49460;SDS011;35355;49.198;-0.368;2023-03-01T13:12:51;11.63;;;6.60;;
49460;SDS011;35355;49.198;-0.368;2023-03-01T13:15:26;13.15;;;7.75;;
49460;SDS011;35355;49.198;-0.368;2023-03-01T13:17:56;10.65;;;6.32;;
49460;SDS011;35355;49.198;-0.368;2023-03-01T13:30:59;14.18;;;6.78;;
49460;SDS011;35355;49.198;-0.368;2023-03-01T13:35:51;12.55;;;6.25;;
49460;SDS011;35355;49.198;-0.368;2023-03-01T13:44:24;10.82;;;6.15;;
49460;SDS011;35355;49.198;-0.368;2023-03-01T13:49:28;8.75;;;5.55;;
49460;SDS011;35355;49.198;-0.368;2023-03-01T13:52:00;12.70;;;5.72;;
49460;SDS011;35355;49.198;-0.368;2023-03-01T13:54:31;8.85;;;5.10;;
49460;SDS011;35355;49.198;-0.368;2023-03-01T13:56:58;10.63;;;5.63;;
49460;SDS011;35355;49.198;-0.368;2023-03-01T13:59:25;12.40;;;5.50;;
49460;SDS011;35355;49.198;-0.368;2023-03-01T14:01:55;18.38;;;5.10;;
49460;SDS011;35355;49.198;-0.368;2023-03-01T14:21:13;7.05;;;4.53;;
49460;SDS011;35355;49.198;-0.368;2023-03-01T14:23:40;11.75;;;4.68;;
49460;SDS011;35355;49.198;-0.368;2023-03-01T14:26:07;11.52;;;4.28;;
49460;SDS011;35355;49.198;-0.368;2023-03-01T14:28:34;9.43;;;4.38;;
49460;SDS011;35355;49.198;-0.368;2023-03-01T14:31:05;6.85;;;3.72;;
49460;SDS011;35355;49.198;-0.368;2023-03-01T14:34:02;9.57;;;4.20;;
49460;SDS011;35355;49.198;-0.368;2023-03-01T14:36:32;10.27;;;4.30;;
49460;SDS011;35355;49.198;-0.368;2023-03-01T14:38:59;11.48;;;5.10;;
49460;SDS011;35355;49.198;-0.368;2023-03-01T14:41:30;7.85;;;4.18;;
49460;SDS011;35355;49.198;-0.368;2023-03-01T14:43:59;10.75;;;4.45;;
49460;SDS011;35355;49.198;-0.368;2023-03-01T14:46:32;9.15;;;3.78;;
49460;SDS011;35355;49.198;-0.368;2023-03-01T14:49:02;8.13;;;4.70;;
49460;SDS011;35355;49.198;-0.368;2023-03-01T14:51:43;9.90;;;4.30;;
49460;SDS011;35355;49.198;-0.368;2023-03-01T14:54:21;9.65;;;4.70;;
49460;SDS011;35355;49.198;-0.368;2023-03-01T14:56:51;9.50;;;4.80;;
49460;SDS011;35355;49.198;-0.368;2023-03-01T14:59:19;10.35;;;4.32;;
49460;SDS011;35355;49.198;-0.368;2023-03-01T15:01:48;8.70;;;4.57;;
49460;SDS011;35355;49.198;-0.368;2023-03-01T15:04:14;9.23;;;4.95;;
49460;SDS011;35355;49.198;-0.368;2023-03-01T15:06:40;9.43;;;4.13;;
49460;SDS011;35355;49.198;-0.368;2023-03-01T15:09:06;13.55;;;4.10;;
49460;SDS011;35355;49.198;-0.368;2023-03-01T15:11:37;9.05;;;4.25;;
49460;SDS011;35355;49.198;-0.368;2023-03-01T15:14:24;6.00;;;3.60;;
49460;SDS011;35355;49.198;-0.368;2023-03-01T15:16:54;8.55;;;4.65;;
49460;SDS011;35355;49.198;-0.368;2023-03-01T15:19:19;8.27;;;4.35;;
49460;SDS011;35355;49.198;-0.368;2023-03-01T15:21:48;7.72;;;4.43;;
49460;SDS011;35355;49.198;-0.368;2023-03-01T15:24:20;8.52;;;4.90;;
49460;SDS011;35355;49.198;-0.368;2023-03-01T15:26:56;5.40;;;3.08;;
49460;SDS011;35355;49.198;-0.368;2023-03-01T15:29:31;9.45;;;4.50;;
49460;SDS011;35355;49.198;-0.368;2023-03-01T15:32:02;12.82;;;4.07;;
49460;SDS011;35355;49.198;-0.368;2023-03-01T15:34:46;6.68;;;4.10;;
49460;SDS011;35355;49.198;-0.368;2023-03-01T15:39:58;14.07;;;5.45;;
49460;SDS011;35355;49.198;-0.368;2023-03-01T15:45:07;11.40;;;4.95;;
49460;SDS011;35355;49.198;-0.368;2023-03-01T15:47:33;11.95;;;5.40;;
49460;SDS011;35355;49.198;-0.368;2023-03-01T15:50:00;9.85;;;5.15;;
49460;SDS011;35355;49.198;-0.368;2023-03-01T15:52:28;10.15;;;4.90;;
49460;SDS011;35355;49.198;-0.368;2023-03-01T15:55:02;10.52;;;5.07;;
49460;SDS011;35355;49.198;-0.368;2023-03-01T15:57:30;14.75;;;5.15;;
49460;SDS011;35355;49.198;-0.368;2023-03-01T15:59:55;11.40;;;5.82;;
49460;SDS011;35355;49.198;-0.368;2023-03-01T16:02:22;11.32;;;5.18;;
49460;SDS011;35355;49.198;-0.368;2023-03-01T16:04:49;11.68;;;4.68;;
49460;SDS011;35355;49.198;-0.368;2023-03-01T16:07:15;16.42;;;5.75;;
49460;SDS011;35355;49.198;-0.368;2023-03-01T16:09:40;12.15;;;5.57;;
49460;SDS011;35355;49.198;-0.368;2023-03-01T16:12:08;11.48;;;5.05;;
49460;SDS011;35355;49.198;-0.368;2023-03-01T16:14:38;9.43;;;5.95;;
49460;SDS011;35355;49.198;-0.368;2023-03-01T16:17:04;9.15;;;5.82;;
49460;SDS011;35355;49.198;-0.368;2023-03-01T16:19:30;15.77;;;6.25;;
49460;SDS011;35355;49.198;-0.368;2023-03-01T16:21:55;12.80;;;6.50;;
49460;SDS011;35355;49.198;-0.368;2023-03-01T16:24:21;11.35;;;5.78;;
49460;SDS011;35355;49.198;-0.368;2023-03-01T16:26:46;10.45;;;5.65;;
49460;SDS011;35355;49.198;-0.368;2023-03-01T16:29:11;15.93;;;6.30;;
49460;SDS011;35355;49.198;-0.368;2023-03-01T16:31:37;19.38;;;5.43;;
49460;SDS011;35355;49.198;-0.368;2023-03-01T16:34:02;12.23;;;5.50;;
49460;SDS011;35355;49.198;-0.368;2023-03-01T16:36:28;17.02;;;5.03;;
49460;SDS011;35355;49.198;-0.368;2023-03-01T16:38:54;15.65;;;6.45;;
49460;SDS011;35355;49.198;-0.368;2023-03-01T16:41:22;12.60;;;6.13;;
49460;SDS011;35355;49.198;-0.368;2023-03-01T16:43:49;13.20;;;5.55;;
49460;SDS011;35355;49.198;-0.368;2023-03-01T16:46:24;10.52;;;6.07;;
49460;SDS011;35355;49.198;-0.368;2023-03-01T16:48:51;16.20;;;6.47;;
49460;SDS011;35355;49.198;-0.368;2023-03-01T16:51:17;11.48;;;5.82;;
49460;SDS011;35355;49.198;-0.368;2023-03-01T16:53:43;11.68;;;5.28;;
49460;SDS011;35355;49.198;-0.368;2023-03-01T16:56:09;19.55;;;6.50;;
49460;SDS011;35355;49.198;-0.368;2023-03-01T16:58:36;11.90;;;5.55;;
49460;SDS011;35355;49.198;-0.368;2023-03-01T17:03:31;13.30;;;5.55;;
49460;SDS011;35355;49.198;-0.368;2023-03-01T17:06:00;11.38;;;6.05;;
49460;SDS011;35355;49.198;-0.368;2023-03-01T17:08:27;10.55;;;5.93;;
49460;SDS011;35355;49.198;-0.368;2023-03-01T17:10:52;11.73;;;6.40;;
49460;SDS011;35355;49.198;-0.368;2023-03-01T17:13:17;13.75;;;6.45;;
49460;SDS011;35355;49.198;-0.368;2023-03-01T17:15:43;13.57;;;5.20;;
49460;SDS011;35355;49.198;-0.368;2023-03-01T17:18:08;11.45;;;6.25;;